createdAt,value
2018-07-23T00:02:22.586Z,6.40
2018-07-23T00:04:52.053Z,5.43
2018-07-23T00:07:20.663Z,5.40
2018-07-23T00:09:49.573Z,6.03
2018-07-23T00:12:18.166Z,5.13
2018-07-23T00:14:46.743Z,7.27
2018-07-23T00:17:15.294Z,11.73
2018-07-23T00:19:43.896Z,6.70
2018-07-23T00:22:12.421Z,5.07
2018-07-23T00:24:40.941Z,5.13
2018-07-23T00:27:09.656Z,7.60
2018-07-23T00:29:38.767Z,6.13
2018-07-23T00:32:07.329Z,5.47
2018-07-23T00:34:36.834Z,5.00
2018-07-23T00:37:06.086Z,5.13
2018-07-23T00:39:34.631Z,8.20
2018-07-23T00:42:03.506Z,7.70
2018-07-23T00:44:32.125Z,6.70
2018-07-23T00:47:00.737Z,4.80
2018-07-23T00:49:29.254Z,5.77
2018-07-23T00:51:57.814Z,6.77
2018-07-23T00:54:26.349Z,6.40
2018-07-23T00:56:54.881Z,5.30
2018-07-23T00:59:23.449Z,6.30
2018-07-23T01:01:52.189Z,5.37
2018-07-23T01:04:20.734Z,4.70
2018-07-23T01:06:49.582Z,4.63
2018-07-23T01:09:18.134Z,6.03
2018-07-23T01:11:46.691Z,5.20
2018-07-23T01:14:15.229Z,6.77
2018-07-23T01:16:44.646Z,7.67
2018-07-23T01:19:13.193Z,6.30
2018-07-23T01:21:42.985Z,6.10
2018-07-23T01:24:11.577Z,6.03
2018-07-23T01:26:40.133Z,4.97
2018-07-23T01:29:08.663Z,5.33
2018-07-23T01:31:37.393Z,6.60
2018-07-23T01:34:06.317Z,5.40
2018-07-23T01:36:35.913Z,5.30
2018-07-23T01:39:06.910Z,5.57
2018-07-23T01:41:35.916Z,5.03
2018-07-23T01:44:05.394Z,4.87
2018-07-23T01:46:33.978Z,4.50
2018-07-23T01:49:02.773Z,5.20
2018-07-23T01:51:31.299Z,6.20
2018-07-23T01:53:59.894Z,6.63
2018-07-23T01:56:28.488Z,5.17
2018-07-23T01:58:57.135Z,5.60
2018-07-23T02:01:25.737Z,7.63
2018-07-23T02:03:54.359Z,5.23
2018-07-23T02:06:22.910Z,5.43
2018-07-23T02:08:51.533Z,5.17
2018-07-23T02:11:20.565Z,6.63
2018-07-23T02:13:49.164Z,6.60
2018-07-23T02:16:20.676Z,5.60
2018-07-23T02:18:49.564Z,6.80
2018-07-23T02:21:18.192Z,5.10
2018-07-23T02:23:46.730Z,6.30
2018-07-23T02:26:15.463Z,5.93
2018-07-23T02:28:44.106Z,5.53
2018-07-23T02:31:12.644Z,5.30
2018-07-23T02:33:41.481Z,6.62
2018-07-23T02:36:10.045Z,5.40
2018-07-23T02:38:38.748Z,7.10
2018-07-23T02:41:07.351Z,6.83
2018-07-23T02:43:35.952Z,6.37
2018-07-23T02:46:04.550Z,6.77
2018-07-23T02:48:33.121Z,8.93
2018-07-23T02:51:01.658Z,6.93
2018-07-23T02:53:31.061Z,7.93
2018-07-23T02:55:59.867Z,7.87
2018-07-23T02:58:31.227Z,8.10
2018-07-23T03:00:59.795Z,7.13
2018-07-23T03:03:29.421Z,6.67
2018-07-23T03:05:58.145Z,9.07
2018-07-23T03:08:27.598Z,9.13
2018-07-23T03:10:56.310Z,9.07
2018-07-23T03:13:24.986Z,12.40
2018-07-23T03:15:53.877Z,7.70
2018-07-23T03:18:22.394Z,8.30
2018-07-23T03:20:52.342Z,7.83
2018-07-23T03:23:20.911Z,9.47
2018-07-23T03:25:49.485Z,8.83
2018-07-23T03:28:18.142Z,9.67
2018-07-23T03:30:46.701Z,7.70
2018-07-23T03:33:16.537Z,8.30
2018-07-23T03:35:45.120Z,7.80
2018-07-23T03:38:13.757Z,7.93
2018-07-23T03:40:42.293Z,9.30
2018-07-23T03:43:10.993Z,8.00
2018-07-23T03:45:39.581Z,8.57
2018-07-23T03:48:08.994Z,7.43
2018-07-23T03:50:37.544Z,9.40
2018-07-23T03:53:06.282Z,9.70
2018-07-23T03:55:34.850Z,10.40
2018-07-23T03:58:04.230Z,8.37
2018-07-23T04:00:33.637Z,7.97
2018-07-23T04:03:02.153Z,9.63
2018-07-23T04:05:30.724Z,9.83
2018-07-23T04:08:00.454Z,8.60
2018-07-23T04:10:30.010Z,9.83
2018-07-23T04:12:58.557Z,11.47
2018-07-23T04:15:27.077Z,12.00
2018-07-23T04:18:03.008Z,10.03
2018-07-23T04:20:33.291Z,9.37
2018-07-23T04:23:01.990Z,10.47
2018-07-23T04:25:31.096Z,14.23
2018-07-23T04:27:59.952Z,11.53
2018-07-23T04:30:28.575Z,10.73
2018-07-23T04:32:57.285Z,11.87
2018-07-23T04:35:26.270Z,12.67
2018-07-23T04:37:55.618Z,8.53
2018-07-23T04:40:24.153Z,12.50
2018-07-23T04:42:52.737Z,12.20
2018-07-23T04:45:21.253Z,17.07
2018-07-23T04:47:49.814Z,10.30
2018-07-23T04:50:18.336Z,10.17
2018-07-23T04:52:46.865Z,10.30
2018-07-23T04:55:15.396Z,10.10
2018-07-23T04:57:44.068Z,12.20
2018-07-23T05:00:13.001Z,12.30
2018-07-23T05:02:41.873Z,11.47
2018-07-23T05:05:10.619Z,15.57
2018-07-23T05:07:39.212Z,15.47
2018-07-23T05:10:07.797Z,12.83
2018-07-23T05:12:37.216Z,14.23
2018-07-23T05:15:06.161Z,12.20
2018-07-23T05:17:34.713Z,13.27
2018-07-23T05:20:03.242Z,14.17
2018-07-23T05:22:31.810Z,11.17
2018-07-23T05:25:00.373Z,11.40
2018-07-23T05:27:29.216Z,14.33
2018-07-23T05:29:58.354Z,13.37
2018-07-23T05:32:26.889Z,19.07
2018-07-23T05:34:55.449Z,15.30
2018-07-23T05:37:24.229Z,13.97
2018-07-23T05:39:52.796Z,12.53
2018-07-23T05:42:21.365Z,13.63
2018-07-23T05:44:49.914Z,17.30
2018-07-23T05:47:18.487Z,19.43
2018-07-23T05:49:47.057Z,17.27
2018-07-23T05:52:15.816Z,13.00
2018-07-23T05:54:44.734Z,19.43
2018-07-23T05:57:13.436Z,17.43
2018-07-23T05:59:42.018Z,15.37
2018-07-23T06:02:11.146Z,17.43
2018-07-23T06:04:39.666Z,15.80
2018-07-23T06:07:08.829Z,17.20
2018-07-23T06:09:37.373Z,17.47
2018-07-23T06:12:05.949Z,19.67
2018-07-23T06:14:35.016Z,18.27
2018-07-23T06:17:04.107Z,17.13
2018-07-23T06:19:32.690Z,21.67
2018-07-23T06:22:01.513Z,20.70
2018-07-23T06:24:30.877Z,25.83
2018-07-23T06:26:59.433Z,22.27
2018-07-23T06:29:28.292Z,19.23
2018-07-23T06:31:56.871Z,23.93
2018-07-23T06:34:25.555Z,20.13
2018-07-23T06:36:55.062Z,25.03
2018-07-23T06:39:23.897Z,31.80
2018-07-23T06:41:52.469Z,26.87
2018-07-23T06:44:21.058Z,27.63
2018-07-23T06:46:49.751Z,22.07
2018-07-23T06:49:19.558Z,23.57
2018-07-23T06:51:48.202Z,22.30
2018-07-23T06:54:16.978Z,20.50
2018-07-23T06:56:45.566Z,28.67
2018-07-23T06:59:14.094Z,24.50
2018-07-23T07:01:42.678Z,25.37
2018-07-23T07:04:11.461Z,24.37
2018-07-23T07:06:40.026Z,21.93
2018-07-23T07:09:10.131Z,23.00
2018-07-23T07:11:38.799Z,22.43
2018-07-23T07:14:07.826Z,18.43
2018-07-23T07:16:36.481Z,24.03
2018-07-23T07:19:05.058Z,22.60
2018-07-23T07:21:34.833Z,22.43
2018-07-23T07:24:04.558Z,21.40
2018-07-23T07:26:34.120Z,25.50
2018-07-23T07:29:02.838Z,21.57
2018-07-23T07:31:31.416Z,19.67
2018-07-23T07:33:59.971Z,19.17
2018-07-23T07:36:28.554Z,19.07
2018-07-23T07:38:57.116Z,21.93
2018-07-23T07:41:26.965Z,21.23
2018-07-23T07:43:55.906Z,19.87
2018-07-23T07:46:24.509Z,18.40
2018-07-23T07:48:53.954Z,15.33
2018-07-23T07:51:22.509Z,17.50
2018-07-23T07:53:51.103Z,15.10
2018-07-23T07:56:19.662Z,17.07
2018-07-23T07:58:48.273Z,18.27
2018-07-23T08:01:16.869Z,12.13
2018-07-23T08:03:45.432Z,16.73
2018-07-23T08:06:13.985Z,13.50
2018-07-23T08:08:42.957Z,12.97
2018-07-23T08:11:12.253Z,12.83
2018-07-23T08:13:40.769Z,9.53
2018-07-23T08:16:09.377Z,9.83
2018-07-23T08:18:38.205Z,12.53
2018-07-23T08:21:07.158Z,9.73
2018-07-23T08:23:35.730Z,7.67
2018-07-23T08:26:04.838Z,8.93
2018-07-23T08:28:33.495Z,9.90
2018-07-23T08:31:02.179Z,8.87
2018-07-23T08:33:30.901Z,6.03
2018-07-23T08:36:00.077Z,4.83
2018-07-23T08:38:28.671Z,7.97
2018-07-23T08:40:57.199Z,5.80
2018-07-23T08:43:26.587Z,7.80
2018-07-23T08:45:55.112Z,6.47
2018-07-23T08:48:23.650Z,6.27
2018-07-23T08:50:52.189Z,9.90
2018-07-23T08:53:20.783Z,7.70
2018-07-23T08:55:49.401Z,5.77
2018-07-23T08:58:18.760Z,9.80
2018-07-23T09:00:47.349Z,6.23
2018-07-23T09:03:16.653Z,10.73
2018-07-23T09:05:45.249Z,8.80
2018-07-23T09:08:13.806Z,7.53
2018-07-23T09:10:42.359Z,8.37
2018-07-23T09:13:10.998Z,8.03
2018-07-23T09:15:39.573Z,12.43
2018-07-23T09:18:08.319Z,6.63
2018-07-23T09:20:36.929Z,4.33
2018-07-23T09:23:05.525Z,7.17
2018-07-23T09:25:39.273Z,4.97
2018-07-23T09:28:07.809Z,8.10
2018-07-23T09:30:41.621Z,5.53
2018-07-23T09:33:10.327Z,6.40
2018-07-23T09:35:39.166Z,5.70
2018-07-23T09:38:07.729Z,4.87
2018-07-23T09:40:36.347Z,9.10
2018-07-23T09:43:04.972Z,6.37
2018-07-23T09:45:34.917Z,6.97
2018-07-23T09:48:03.835Z,3.57
2018-07-23T09:50:32.361Z,3.43
2018-07-23T09:53:01.600Z,7.17
2018-07-23T09:55:30.229Z,4.97
2018-07-23T09:57:59.245Z,4.43
2018-07-23T10:00:33.023Z,3.73
2018-07-23T10:03:01.653Z,3.80
2018-07-23T10:05:30.861Z,3.53
2018-07-23T10:07:59.462Z,3.10
2018-07-23T10:10:28.125Z,4.90
2018-07-23T10:12:56.761Z,5.13
2018-07-23T10:15:26.757Z,3.17
2018-07-23T10:17:55.363Z,2.90
2018-07-23T10:20:23.955Z,4.10
2018-07-23T10:22:53.173Z,7.00
2018-07-23T10:25:22.697Z,2.87
2018-07-23T10:27:51.786Z,1.93
2018-07-23T10:30:21.873Z,5.27
2018-07-23T10:32:50.423Z,1.60
2018-07-23T10:35:20.033Z,4.23
2018-07-23T10:37:48.607Z,4.63
2018-07-23T10:40:17.477Z,2.53
2018-07-23T10:42:46.167Z,2.27
2018-07-23T10:45:14.724Z,2.20
2018-07-23T10:47:43.481Z,1.80
2018-07-23T10:50:12.145Z,4.23
2018-07-23T10:52:40.737Z,3.97
2018-07-23T10:55:09.990Z,4.67
2018-07-23T10:57:38.558Z,4.80
2018-07-23T11:00:07.383Z,6.43
2018-07-23T11:02:37.238Z,2.40
2018-07-23T11:05:06.449Z,2.37
2018-07-23T11:07:35.735Z,3.10
2018-07-23T11:10:04.329Z,2.57
2018-07-23T11:12:32.909Z,2.87
2018-07-23T11:15:01.433Z,2.65
2018-07-23T11:17:29.974Z,2.77
2018-07-23T11:19:59.442Z,5.60
2018-07-23T11:22:27.990Z,3.97
2018-07-23T11:24:56.522Z,4.70
2018-07-23T11:27:25.110Z,5.83
2018-07-23T11:29:53.649Z,2.00
2018-07-23T11:32:22.305Z,5.80
2018-07-23T11:34:50.916Z,3.63
2018-07-23T11:37:19.465Z,3.00
2018-07-23T11:39:48.575Z,3.97
2018-07-23T11:42:17.113Z,2.00
2018-07-23T11:44:45.740Z,3.17
2018-07-23T11:47:14.324Z,5.20
2018-07-23T11:49:42.841Z,2.53
2018-07-23T11:52:14.357Z,4.37
2018-07-23T11:54:40.829Z,2.30
2018-07-23T11:57:10.067Z,3.90
2018-07-23T11:59:38.629Z,6.83
2018-07-23T12:02:07.594Z,7.93
2018-07-23T12:04:36.378Z,4.03
2018-07-23T12:07:06.472Z,2.90
2018-07-23T12:09:36.520Z,5.30
2018-07-23T12:12:06.330Z,3.90
2018-07-23T12:14:36.423Z,5.27
2018-07-23T12:17:04.960Z,4.60
2018-07-23T12:19:33.740Z,5.63
2018-07-23T12:22:02.401Z,3.63
2018-07-23T12:24:31.061Z,5.03
2018-07-23T12:26:59.661Z,3.83
2018-07-23T12:29:28.208Z,4.07
2018-07-23T12:31:56.832Z,3.80
2018-07-23T12:34:25.437Z,5.13
2018-07-23T12:36:55.010Z,2.73
2018-07-23T12:39:24.670Z,5.03
2018-07-23T12:41:53.169Z,5.47
2018-07-23T12:44:21.697Z,3.50
2018-07-23T12:46:52.016Z,4.47
2018-07-23T12:49:20.633Z,5.10
2018-07-23T12:51:49.193Z,8.67
2018-07-23T12:54:17.718Z,6.27
2018-07-23T12:56:46.253Z,5.13
2018-07-23T12:59:14.839Z,3.93
2018-07-23T13:01:45.413Z,3.83
2018-07-23T13:04:14.653Z,3.10
2018-07-23T13:06:43.382Z,4.37
2018-07-23T13:09:12.945Z,5.93
2018-07-23T13:11:41.506Z,3.43
2018-07-23T13:14:11.011Z,4.93
2018-07-23T13:16:40.466Z,5.43
2018-07-23T13:19:09.008Z,3.03
2018-07-23T13:21:37.547Z,4.30
2018-07-23T13:24:06.334Z,3.27
2018-07-23T13:26:37.295Z,3.07
2018-07-23T13:29:06.598Z,5.03
2018-07-23T13:31:35.735Z,5.50
2018-07-23T13:34:05.090Z,4.27
2018-07-23T13:36:34.723Z,4.83
2018-07-23T13:39:03.486Z,4.00
2018-07-23T13:41:32.025Z,3.23
2018-07-23T13:44:00.561Z,3.10
2018-07-23T13:46:29.181Z,2.60
2018-07-23T13:48:57.689Z,4.77
2018-07-23T13:51:26.794Z,4.17
2018-07-23T13:53:55.413Z,4.73
2018-07-23T13:56:23.954Z,3.63
2018-07-23T13:58:52.596Z,3.50
2018-07-23T14:01:21.197Z,3.23
2018-07-23T14:03:50.468Z,3.27
2018-07-23T14:06:19.740Z,3.30
2018-07-23T14:08:49.304Z,5.57
2018-07-23T14:11:17.857Z,4.83
2018-07-23T14:13:46.859Z,6.27
2018-07-23T14:16:15.410Z,3.17
2018-07-23T14:18:43.951Z,3.93
2018-07-23T14:21:12.503Z,4.57
2018-07-23T14:23:41.075Z,2.80
2018-07-23T14:26:09.757Z,5.60
2018-07-23T14:28:38.304Z,8.03
2018-07-23T14:31:06.846Z,4.00
2018-07-23T14:33:35.652Z,7.87
2018-07-23T14:36:04.248Z,3.67
2018-07-23T14:38:33.424Z,3.43
2018-07-23T14:41:02.368Z,4.07
2018-07-23T14:43:30.995Z,4.77
2018-07-23T14:45:59.529Z,7.17
2018-07-23T14:48:28.074Z,4.00
2018-07-23T14:50:57.131Z,5.87
2018-07-23T14:53:25.650Z,4.07
2018-07-23T14:55:54.219Z,3.40
2018-07-23T14:58:22.781Z,4.37
2018-07-23T15:00:51.347Z,5.63
2018-07-23T15:03:20.546Z,11.17
2018-07-23T15:05:49.091Z,7.10
2018-07-23T15:08:17.981Z,6.50
2018-07-23T15:10:46.505Z,6.70
2018-07-23T15:13:15.559Z,5.93
2018-07-23T15:15:44.838Z,7.53
2018-07-23T15:18:13.481Z,11.30
2018-07-23T15:20:42.026Z,9.17
2018-07-23T15:23:10.693Z,7.10
2018-07-23T15:25:39.245Z,6.97
2018-07-23T15:28:07.838Z,8.35
2018-07-23T15:30:37.041Z,6.97
2018-07-23T15:33:05.585Z,6.60
2018-07-23T15:35:35.085Z,10.63
2018-07-23T15:38:03.621Z,8.07
2018-07-23T15:40:32.161Z,6.87
2018-07-23T15:43:00.706Z,7.37
2018-07-23T15:45:32.984Z,8.70
2018-07-23T15:48:02.780Z,5.00
2018-07-23T15:50:31.632Z,6.93
2018-07-23T15:53:00.180Z,8.17
2018-07-23T15:55:28.718Z,6.53
2018-07-23T15:57:58.129Z,6.97
2018-07-23T16:00:27.021Z,6.20
2018-07-23T16:02:55.565Z,12.53
2018-07-23T16:05:25.308Z,8.60
2018-07-23T16:07:54.725Z,6.93
2018-07-23T16:10:23.261Z,5.70
2018-07-23T16:12:51.813Z,5.00
2018-07-23T16:15:21.140Z,7.10
2018-07-23T16:17:50.235Z,10.03
2018-07-23T16:20:19.240Z,8.60
2018-07-23T16:22:48.255Z,4.23
2018-07-23T16:25:16.837Z,6.67
2018-07-23T16:27:45.622Z,8.83
2018-07-23T16:30:15.048Z,11.37
2018-07-23T16:32:43.581Z,10.83
2018-07-23T16:35:12.809Z,7.53
2018-07-23T16:37:41.330Z,4.40
2018-07-23T16:40:10.580Z,6.17
2018-07-23T16:42:39.120Z,4.70
2018-07-23T16:45:08.756Z,6.23
2018-07-23T16:47:37.343Z,8.13
2018-07-23T16:50:07.129Z,5.57
2018-07-23T16:52:35.668Z,7.00
2018-07-23T16:55:04.203Z,4.53
2018-07-23T16:57:32.775Z,5.57
2018-07-23T17:00:02.190Z,4.60
2018-07-23T17:02:31.380Z,11.63
2018-07-23T17:04:59.909Z,6.47
2018-07-23T17:07:28.460Z,5.53
2018-07-23T17:09:57.005Z,5.40
2018-07-23T17:12:25.527Z,5.10
2018-07-23T17:14:54.093Z,7.80
2018-07-23T17:17:22.637Z,4.80
2018-07-23T17:19:51.234Z,5.33
2018-07-23T17:22:19.745Z,5.50
2018-07-23T17:24:48.276Z,5.70
2018-07-23T17:27:17.405Z,6.07
2018-07-23T17:29:45.939Z,5.73
2018-07-23T17:32:14.833Z,7.13
2018-07-23T17:34:44.112Z,6.97
2018-07-23T17:37:12.620Z,5.50
2018-07-23T17:39:41.157Z,5.13
2018-07-23T17:42:09.705Z,5.30
2018-07-23T17:44:38.283Z,6.07
2018-07-23T17:47:06.849Z,5.70
2018-07-23T17:49:35.366Z,6.43
2018-07-23T17:52:03.868Z,8.67
2018-07-23T17:54:33.219Z,7.43
2018-07-23T17:57:01.757Z,7.30
2018-07-23T17:59:30.298Z,4.23
2018-07-23T18:01:58.865Z,4.77
2018-07-23T18:04:28.212Z,4.33
2018-07-23T18:06:56.724Z,8.13
2018-07-23T18:09:25.312Z,6.43
2018-07-23T18:11:53.861Z,3.87
2018-07-23T18:14:22.849Z,7.13
2018-07-23T18:16:51.790Z,9.77
2018-07-23T18:19:20.341Z,5.93
2018-07-23T18:21:48.911Z,12.37
2018-07-23T18:24:17.447Z,10.37
2018-07-23T18:26:46.870Z,8.00
2018-07-23T18:29:15.400Z,8.20
2018-07-23T18:31:44.913Z,9.03
2018-07-23T18:34:17.341Z,7.50
2018-07-23T18:36:45.897Z,12.27
2018-07-23T18:39:14.421Z,9.90
2018-07-23T18:41:43.204Z,9.07
2018-07-23T18:44:11.970Z,10.60
2018-07-23T18:46:41.093Z,12.40
2018-07-23T18:49:53.381Z,8.20
2018-07-23T18:52:22.485Z,5.20
2018-07-23T18:54:52.275Z,9.97
2018-07-23T18:57:21.629Z,10.00
2018-07-23T18:59:50.154Z,8.67
2018-07-23T19:03:48.477Z,12.83
2018-07-23T19:06:17.102Z,10.60
2018-07-23T19:08:45.748Z,12.10
2018-07-23T19:11:14.760Z,5.17
2018-07-23T19:13:43.359Z,6.97
2018-07-23T19:16:11.989Z,9.93
2018-07-23T19:18:40.492Z,7.20
2018-07-23T19:21:09.087Z,6.50
2018-07-23T19:23:37.618Z,6.37
2018-07-23T19:26:07.067Z,8.87
2018-07-23T19:28:35.707Z,8.43
2018-07-23T19:31:04.264Z,9.83
2018-07-23T19:33:33.531Z,7.30
2018-07-23T19:36:02.245Z,6.50
2018-07-23T19:38:31.150Z,8.80
2018-07-23T19:40:59.806Z,8.57
2018-07-23T19:43:30.456Z,5.43
2018-07-23T19:45:59.164Z,5.80
2018-07-23T19:48:30.284Z,8.53
2018-07-23T19:50:58.805Z,8.77
2018-07-23T19:53:27.310Z,10.73
2018-07-23T19:55:56.572Z,8.03
2018-07-23T19:58:25.172Z,11.50
2018-07-23T20:00:53.892Z,10.40
2018-07-23T20:03:22.721Z,6.67
2018-07-23T20:05:51.224Z,9.13
2018-07-23T20:08:19.992Z,7.40
2018-07-23T20:10:48.611Z,8.97
2018-07-23T20:13:17.173Z,6.10
2018-07-23T20:15:45.681Z,8.20
2018-07-23T20:18:14.216Z,8.80
2018-07-23T20:20:42.716Z,9.63
2018-07-23T20:23:11.285Z,11.00
2018-07-23T20:25:40.504Z,7.73
2018-07-23T20:28:09.462Z,7.30
2018-07-23T20:30:38.017Z,10.57
2018-07-23T20:33:06.624Z,6.40
2018-07-23T20:35:35.264Z,8.70
2018-07-23T20:38:03.816Z,7.20
2018-07-23T20:40:32.348Z,6.23
2018-07-23T20:43:00.898Z,6.43
2018-07-23T20:45:29.417Z,8.77
2018-07-23T20:47:58.363Z,7.73
2018-07-23T20:50:27.177Z,10.57
2018-07-23T20:52:55.850Z,6.77
2018-07-23T20:55:26.546Z,8.50
2018-07-23T20:57:55.134Z,7.37
2018-07-23T21:00:23.906Z,6.80
2018-07-23T21:02:53.319Z,5.40
2018-07-23T21:05:21.833Z,5.93
2018-07-23T21:07:50.348Z,7.80
2018-07-23T21:10:18.842Z,7.20
2018-07-23T21:12:47.362Z,9.40
2018-07-23T21:15:16.285Z,6.23
2018-07-23T21:17:45.480Z,12.47
2018-07-23T21:20:14.001Z,6.27
2018-07-23T21:22:42.561Z,7.40
2018-07-23T21:25:12.608Z,7.60
2018-07-23T21:29:05.577Z,9.73
2018-07-23T21:31:34.212Z,7.17
2018-07-23T21:34:02.722Z,7.47
2018-07-23T21:36:31.256Z,9.77
2018-07-23T21:39:00.218Z,6.77
2018-07-23T21:41:29.186Z,8.70
2018-07-23T21:43:57.696Z,6.50
2018-07-23T21:46:26.294Z,7.67
2018-07-23T21:48:54.837Z,4.27
2018-07-23T21:51:24.154Z,7.20
2018-07-23T21:53:52.706Z,5.63
2018-07-23T21:56:21.292Z,6.47
2018-07-23T21:58:49.791Z,5.17
2018-07-23T22:01:19.382Z,7.07
2018-07-23T22:03:47.907Z,4.40
2018-07-23T22:06:19.957Z,7.10
2018-07-23T22:08:48.505Z,11.60
2018-07-23T22:11:17.013Z,6.63
2018-07-23T22:13:45.557Z,6.67
2018-07-23T22:16:14.095Z,5.87
2018-07-23T22:18:42.628Z,7.40
2018-07-23T22:21:12.104Z,7.47
2018-07-23T22:23:40.617Z,6.67
2018-07-23T22:26:09.164Z,12.00
2018-07-23T22:28:37.677Z,8.77
2018-07-23T22:31:06.224Z,5.67
2018-07-23T22:33:34.726Z,6.37
2018-07-23T22:36:03.241Z,8.67
2018-07-23T22:38:31.788Z,11.93
2018-07-23T22:41:00.292Z,7.80
2018-07-23T22:43:28.840Z,9.03
2018-07-23T22:45:57.597Z,9.70
2018-07-23T22:48:26.870Z,8.53
2018-07-23T22:50:55.381Z,7.60
2018-07-23T22:53:24.608Z,5.37
2018-07-23T22:55:53.151Z,7.53
2018-07-23T22:58:21.689Z,8.90
2018-07-23T23:00:50.695Z,7.93
2018-07-23T23:03:19.244Z,9.73
2018-07-23T23:05:47.820Z,6.90
2018-07-23T23:08:17.284Z,9.07
2018-07-23T23:10:45.925Z,6.73
2018-07-23T23:13:14.976Z,9.03
2018-07-23T23:15:43.535Z,6.80
2018-07-23T23:18:12.070Z,8.23
2018-07-23T23:20:41.177Z,7.93
2018-07-23T23:23:09.717Z,11.53
2018-07-23T23:25:38.293Z,8.30
2018-07-23T23:28:07.108Z,7.03
2018-07-23T23:30:35.998Z,8.37
2018-07-23T23:33:04.516Z,6.63
2018-07-23T23:35:33.072Z,8.00
2018-07-23T23:38:02.573Z,8.00
2018-07-23T23:40:32.680Z,7.70
2018-07-23T23:43:01.453Z,12.67
2018-07-23T23:45:30.006Z,8.53
2018-07-23T23:47:58.536Z,9.47
2018-07-23T23:50:28.019Z,11.00
2018-07-23T23:52:56.561Z,7.30
2018-07-23T23:55:25.105Z,7.23
2018-07-23T23:57:53.860Z,7.03
